Aviation Digital Data Service (ADDS)

Output produced by METARs form (0020 UTC 17 July 2019)
found at http://www.aviationweather.gov/metar/data/
 
Forecast for: ZWWW (URUM-QI/DIWOPU , CN)
Text: TAF ZWWW 162108Z 1700/1724 18004MPS CAVOK TX36/1709Z TN25/1700Z
Forecast period: 0000 to 0200 UTC 17 July 2019
Forecast type: FROM: standard forecast or significant change
Winds: from the S (180 degrees) at 9 MPH (8 knots; 4.1 m/s)
Visibility: 6 or more miles 10+ km)
Ceiling: unknown
Clouds: missing
Weather: no significant weather forecast for this period
Text: BECMG 1702/1703 36004MPS
Forecast period: 0200 to 1300 UTC 17 July 2019
Forecast type: BECOMING: Conditions expected to become as follows by 0300 UTC 17 July 2019
Winds: from the N (360 degrees) at 9 MPH (8 knots; 4.1 m/s)
Visibility: 6 or more miles 10+ km)
Ceiling: unknown
Clouds: missing
Weather: no significant weather forecast for this period
Text: BECMG 1713/1714 18004MPS
Forecast period: 1300 UTC 17 July 2019 to 0000 UTC 18 July 2019
Forecast type: BECOMING: Conditions expected to become as follows by 1400 UTC 17 July 2019
Winds: from the S (180 degrees) at 9 MPH (8 knots; 4.1 m/s)
Visibility: 6 or more miles 10+ km)
Ceiling: unknown
Clouds: missing
Weather: no significant weather forecast for this period